createdAt,value
2023-05-21T00:05:05.273Z,1433
2023-05-21T00:10:23.822Z,1452
2023-05-21T00:15:42.242Z,1461
2023-05-21T00:21:00.408Z,1471
2023-05-21T00:26:18.546Z,1482
2023-05-21T00:31:36.971Z,1492
2023-05-21T00:36:55.293Z,1505
2023-05-21T00:42:13.628Z,1512
2023-05-21T00:47:32.036Z,1520
2023-05-21T00:52:50.268Z,1545
2023-05-21T00:58:08.851Z,1549
2023-05-21T01:03:27.247Z,1558
2023-05-21T01:08:45.689Z,1552
2023-05-21T01:14:03.901Z,1561
2023-05-21T01:19:22.147Z,1553
2023-05-21T01:24:40.931Z,1552
2023-05-21T01:29:59.073Z,1553
2023-05-21T01:35:17.505Z,1550
2023-05-21T01:40:36.072Z,1547
2023-05-21T01:45:54.286Z,1537
2023-05-21T01:51:13.161Z,1533
2023-05-21T01:56:31.768Z,1542
2023-05-21T02:01:49.941Z,1532
2023-05-21T02:07:08.406Z,1533
2023-05-21T02:12:26.754Z,1538
2023-05-21T02:17:45.143Z,1541
2023-05-21T02:23:03.997Z,1549
2023-05-21T02:28:21.990Z,1556
2023-05-21T02:33:40.499Z,1561
2023-05-21T02:38:58.869Z,1565
2023-05-21T02:44:17.409Z,1559
2023-05-21T02:49:35.771Z,1551
2023-05-21T02:54:54.132Z,1559
2023-05-21T03:00:12.678Z,1558
2023-05-21T03:05:31.200Z,1557
2023-05-21T03:10:49.416Z,1556
2023-05-21T03:16:07.379Z,1548
2023-05-21T03:21:25.768Z,1547
2023-05-21T03:26:44.171Z,1549
2023-05-21T03:32:02.181Z,1549
2023-05-21T03:37:20.696Z,1544
2023-05-21T03:42:39.090Z,1537
2023-05-21T03:47:57.260Z,1548
2023-05-21T03:53:15.346Z,1537
2023-05-21T03:58:17.730Z,1531
2023-05-21T04:03:37.361Z,1532
2023-05-21T04:08:59.380Z,1533
2023-05-21T04:14:17.756Z,1535
2023-05-21T04:19:36.029Z,1531
2023-05-21T04:24:54.313Z,1534
2023-05-21T04:30:12.916Z,1533
2023-05-21T04:35:31.119Z,1537
2023-05-21T04:40:49.248Z,1536
2023-05-21T04:45:51.836Z,1530
2023-05-21T04:51:10.487Z,1546
2023-05-21T04:56:28.877Z,1539
2023-05-21T05:01:47.513Z,1537
2023-05-21T05:07:06.180Z,1543
2023-05-21T05:12:24.541Z,1553
2023-05-21T05:17:42.601Z,1555
2023-05-21T05:23:01.075Z,1552
2023-05-21T05:28:19.499Z,1554
2023-05-21T05:33:37.664Z,1555
2023-05-21T05:38:56.243Z,1545
2023-05-21T05:44:14.781Z,1546
2023-05-21T05:49:32.803Z,1549
2023-05-21T05:54:51.413Z,1555
2023-05-21T06:00:09.557Z,1547
2023-05-21T06:05:27.772Z,1570
2023-05-21T06:10:46.035Z,1571
2023-05-21T06:16:04.440Z,1557
2023-05-21T06:21:22.727Z,1544
2023-05-21T06:26:41.081Z,1530
2023-05-21T06:31:59.509Z,1524
2023-05-21T06:37:18.082Z,1508
2023-05-21T06:42:36.628Z,1480
2023-05-21T06:47:54.981Z,1462
2023-05-21T06:53:13.395Z,1440
2023-05-21T06:58:31.801Z,1410
2023-05-21T07:03:49.852Z,1389
2023-05-21T07:09:08.079Z,1393
2023-05-21T07:14:10.662Z,1437
2023-05-21T07:19:29.043Z,1489
2023-05-21T07:24:47.557Z,1493
2023-05-21T07:29:50.101Z,1521
2023-05-21T07:35:08.628Z,1069
2023-05-21T07:40:26.797Z,944
2023-05-21T07:45:45.329Z,960
2023-05-21T07:51:03.694Z,1003
2023-05-21T07:56:22.036Z,1054
2023-05-21T08:01:40.379Z,1097
2023-05-21T08:06:58.817Z,1137
2023-05-21T08:12:17.413Z,1166
2023-05-21T08:17:35.830Z,1181
2023-05-21T08:22:53.956Z,1196
2023-05-21T08:28:12.522Z,1207
2023-05-21T08:33:30.709Z,1212
2023-05-21T08:38:48.885Z,1212
2023-05-21T08:44:07.140Z,1214
2023-05-21T08:49:27.129Z,1203
2023-05-21T08:54:45.959Z,1191
2023-05-21T09:00:04.282Z,1187
2023-05-21T09:05:22.662Z,1162
2023-05-21T09:10:41.146Z,1144
2023-05-21T09:15:59.728Z,1120
2023-05-21T09:21:18.155Z,1095
2023-05-21T09:26:36.331Z,1072
2023-05-21T09:31:54.554Z,1049
2023-05-21T09:37:20.146Z,1028
2023-05-21T09:42:45.905Z,1020
2023-05-21T09:48:04.362Z,1000
2023-05-21T09:53:23.073Z,987
2023-05-21T09:58:41.611Z,962
2023-05-21T10:04:00.019Z,949
2023-05-21T10:09:18.495Z,946
2023-05-21T10:14:37.091Z,946
2023-05-21T10:19:55.260Z,933
2023-05-21T10:25:16.450Z,927
2023-05-21T10:30:35.221Z,927
2023-05-21T10:35:54.038Z,917
2023-05-21T10:41:12.757Z,923
2023-05-21T10:46:34.208Z,695
2023-05-21T10:51:52.551Z,648
2023-05-21T10:57:10.967Z,632
2023-05-21T11:02:29.396Z,668
2023-05-21T11:07:48.294Z,635
2023-05-21T11:13:06.724Z,532
2023-05-21T11:18:25.221Z,463
2023-05-21T11:23:43.533Z,454
2023-05-21T11:29:01.845Z,448
2023-05-21T11:34:20.150Z,435
2023-05-21T11:39:38.149Z,425
2023-05-21T11:44:56.710Z,459
2023-05-21T11:50:15.033Z,448
2023-05-21T11:55:33.088Z,441
2023-05-21T12:00:51.186Z,444
2023-05-21T12:06:09.788Z,436
2023-05-21T12:11:28.365Z,422
2023-05-21T12:16:46.758Z,419
2023-05-21T12:22:05.491Z,411
2023-05-21T12:27:24.118Z,405
2023-05-21T12:32:42.593Z,411
2023-05-21T12:37:46.394Z,436
2023-05-21T12:43:04.930Z,478
2023-05-21T12:48:23.665Z,473
2023-05-21T12:53:41.961Z,481
2023-05-21T12:59:00.130Z,493
2023-05-21T13:04:18.733Z,517
2023-05-21T13:09:36.855Z,537
2023-05-21T13:14:55.159Z,531
2023-05-21T13:20:13.721Z,508
2023-05-21T13:25:33.227Z,523
2023-05-21T13:30:51.662Z,555
2023-05-21T13:36:10.632Z,592
2023-05-21T13:41:28.965Z,581
2023-05-21T13:46:47.530Z,549
2023-05-21T13:52:05.957Z,530
2023-05-21T13:57:24.113Z,526
2023-05-21T14:02:42.320Z,523
2023-05-21T14:07:45.131Z,532
2023-05-21T14:12:47.835Z,533
2023-05-21T14:18:05.860Z,540
2023-05-21T14:23:24.400Z,545
2023-05-21T14:28:42.713Z,564
2023-05-21T14:34:01.057Z,582
2023-05-21T14:39:19.378Z,595
2023-05-21T14:44:37.883Z,598
2023-05-21T14:49:56.474Z,603
2023-05-21T14:55:14.822Z,605
2023-05-21T15:00:32.964Z,604
2023-05-21T15:05:51.587Z,608
2023-05-21T15:11:09.771Z,595
2023-05-21T15:16:28.127Z,577
2023-05-21T15:21:46.895Z,548
2023-05-21T15:27:05.494Z,565
2023-05-21T15:32:23.525Z,615
2023-05-21T15:37:41.958Z,616
2023-05-21T15:43:00.375Z,567
2023-05-21T15:48:18.340Z,557
2023-05-21T15:53:36.718Z,564
2023-05-21T15:58:55.334Z,560
2023-05-21T16:04:13.893Z,549
2023-05-21T16:09:32.694Z,458
2023-05-21T16:14:51.078Z,429
2023-05-21T16:20:09.239Z,443
2023-05-21T16:25:27.636Z,495
2023-05-21T16:30:30.644Z,521
2023-05-21T16:35:49.204Z,522
2023-05-21T16:41:07.777Z,530
2023-05-21T16:46:26.159Z,553
2023-05-21T16:51:44.600Z,560
2023-05-21T16:57:03.131Z,560
2023-05-21T17:02:21.366Z,562
2023-05-21T17:07:39.820Z,561
2023-05-21T17:12:59.825Z,596
2023-05-21T17:18:40.750Z,636
2023-05-21T17:23:59.065Z,669
2023-05-21T17:29:17.528Z,695
2023-05-21T17:34:36.234Z,714
2023-05-21T17:39:55.482Z,729
2023-05-21T17:45:13.641Z,689
2023-05-21T17:50:32.235Z,550
2023-05-21T17:55:50.601Z,570
2023-05-21T18:01:09.034Z,613
2023-05-21T18:06:27.272Z,666
2023-05-21T18:11:45.570Z,740
2023-05-21T18:17:04.054Z,616
2023-05-21T18:27:53.279Z,728
2023-05-21T18:33:11.458Z,770
2023-05-21T18:38:29.932Z,799
2023-05-21T18:43:48.503Z,835
2023-05-21T18:49:06.739Z,860
2023-05-21T18:54:25.189Z,885
2023-05-21T18:59:43.703Z,902
2023-05-21T19:05:02.469Z,919
2023-05-21T19:10:20.962Z,938
2023-05-21T19:15:39.382Z,952
2023-05-21T19:20:57.802Z,970
2023-05-21T19:26:16.186Z,954
2023-05-21T19:31:34.171Z,776
2023-05-21T19:36:54.076Z,776
2023-05-21T19:42:12.448Z,787
2023-05-21T19:47:30.903Z,868
2023-05-21T19:52:49.328Z,938
2023-05-21T19:58:07.783Z,1092
2023-05-21T20:03:26.213Z,1122
2023-05-21T20:08:45.649Z,1184
2023-05-21T20:14:04.278Z,1194
2023-05-21T20:19:22.785Z,1233
2023-05-21T20:24:40.945Z,1254
2023-05-21T20:29:58.943Z,1283
2023-05-21T20:35:18.160Z,1298
2023-05-21T20:40:36.821Z,1331
2023-05-21T20:45:55.848Z,1344
2023-05-21T20:51:14.032Z,1346
2023-05-21T20:56:41.308Z,1355
2023-05-21T21:02:01.478Z,1358
2023-05-21T21:07:20.225Z,1368
2023-05-21T21:12:40.478Z,1379
2023-05-21T21:17:58.666Z,1388
2023-05-21T21:23:17.317Z,1395
2023-05-21T21:28:35.655Z,1395
2023-05-21T21:33:54.376Z,1399
2023-05-21T21:39:12.978Z,1405
2023-05-21T21:44:31.516Z,1410
2023-05-21T21:49:49.693Z,1409
2023-05-21T21:55:08.082Z,1415
2023-05-21T22:00:26.808Z,1423
2023-05-21T22:05:45.290Z,1436
2023-05-21T22:11:03.468Z,1444
2023-05-21T22:16:21.931Z,1452
2023-05-21T22:21:39.997Z,1462
2023-05-21T22:26:58.145Z,1465
2023-05-21T22:32:16.689Z,1481
2023-05-21T22:37:34.814Z,1485
2023-05-21T22:42:52.804Z,1495
2023-05-21T22:48:10.754Z,1500
2023-05-21T22:53:28.924Z,1514
2023-05-21T22:58:47.493Z,1530
2023-05-21T23:04:06.101Z,1539
2023-05-21T23:09:24.425Z,1544
2023-05-21T23:14:42.573Z,1550
2023-05-21T23:20:00.955Z,1564
2023-05-21T23:25:19.270Z,1573
2023-05-21T23:30:37.596Z,1587
2023-05-21T23:35:56.626Z,1593
2023-05-21T23:41:14.794Z,1766
2023-05-21T23:46:33.310Z,1676
2023-05-21T23:51:51.294Z,1679
2023-05-21T23:57:09.229Z,1715
